createdAt,value
2023-02-09T00:00:39.096Z,8.70
2023-02-09T00:03:08.106Z,8.70
2023-02-09T00:05:38.347Z,8.70
2023-02-09T00:08:07.358Z,8.70
2023-02-09T00:10:39.731Z,8.70
2023-02-09T00:13:22.885Z,8.60
2023-02-09T00:15:53.238Z,8.60
2023-02-09T00:18:26.970Z,8.60
2023-02-09T00:21:00.392Z,8.60
2023-02-09T00:23:30.871Z,8.60
2023-02-09T00:26:02.910Z,8.60
2023-02-09T00:28:35.104Z,8.60
2023-02-09T00:31:08.710Z,8.60
2023-02-09T00:33:38.309Z,8.60
2023-02-09T00:36:09.187Z,8.60
2023-02-09T00:38:38.657Z,8.60
2023-02-09T00:41:09.220Z,8.60
2023-02-09T00:43:38.287Z,8.60
2023-02-09T00:46:07.789Z,8.60
2023-02-09T00:48:38.097Z,8.60
2023-02-09T00:51:07.587Z,8.60
2023-02-09T00:53:38.069Z,8.60
2023-02-09T00:56:09.971Z,8.60
2023-02-09T00:58:40.945Z,8.60
2023-02-09T01:01:13.421Z,8.50
2023-02-09T01:03:45.529Z,8.50
2023-02-09T01:06:14.499Z,8.50
2023-02-09T01:08:43.565Z,8.50
2023-02-09T01:11:17.350Z,8.50
2023-02-09T01:13:47.458Z,8.40
2023-02-09T01:16:18.757Z,8.50
2023-02-09T01:18:47.971Z,8.40
2023-02-09T01:21:20.539Z,8.40
2023-02-09T01:23:50.860Z,8.40
2023-02-09T01:26:21.461Z,8.40
2023-02-09T01:28:51.727Z,8.30
2023-02-09T01:31:25.741Z,8.30
2023-02-09T01:33:57.216Z,8.30
2023-02-09T01:36:33.471Z,8.30
2023-02-09T01:39:04.182Z,8.20
2023-02-09T01:41:35.765Z,8.20
2023-02-09T01:44:47.351Z,8.20
2023-02-09T01:47:17.851Z,8.20
2023-02-09T01:49:50.100Z,8.20
2023-02-09T01:52:22.636Z,8.20
2023-02-09T01:54:56.499Z,8.20
2023-02-09T01:57:32.667Z,8.20
2023-02-09T02:00:07.894Z,8.20
2023-02-09T02:02:45.178Z,8.20
2023-02-09T02:05:17.779Z,8.20
2023-02-09T02:07:53.159Z,8.10
2023-02-09T02:10:22.797Z,8.10
2023-02-09T02:12:56.243Z,8.10
2023-02-09T02:15:30.806Z,8.10
2023-02-09T02:18:18.507Z,8.10
2023-02-09T02:21:45.458Z,8.10
2023-02-09T02:24:40.665Z,8.10
2023-02-09T02:27:21.247Z,8.10
2023-02-09T02:30:30.520Z,8.10
2023-02-09T02:33:18.649Z,8.00
2023-02-09T02:35:55.518Z,8.00
2023-02-09T02:38:36.029Z,8.00
2023-02-09T02:41:17.111Z,8.00
2023-02-09T02:43:56.923Z,8.00
2023-02-09T02:46:33.554Z,8.00
2023-02-09T02:49:08.739Z,7.90
2023-02-09T02:51:40.739Z,7.90
2023-02-09T02:54:14.665Z,7.90
2023-02-09T02:56:47.145Z,7.90
2023-02-09T02:59:20.839Z,7.90
2023-02-09T03:01:56.650Z,7.80
2023-02-09T03:04:31.932Z,7.80
2023-02-09T03:07:01.290Z,7.80
2023-02-09T03:09:32.778Z,7.80
2023-02-09T03:12:15.630Z,7.80
2023-02-09T03:15:04.852Z,7.80
2023-02-09T03:17:48.304Z,7.70
2023-02-09T03:20:30.384Z,7.70
2023-02-09T03:23:05.948Z,7.70
2023-02-09T03:25:39.018Z,7.70
2023-02-09T03:28:15.560Z,7.70
2023-02-09T03:30:49.938Z,7.70
2023-02-09T03:33:21.627Z,7.60
2023-02-09T03:35:56.405Z,7.60
2023-02-09T03:38:26.327Z,7.60
2023-02-09T03:40:55.691Z,7.60
2023-02-09T03:43:47.293Z,7.60
2023-02-09T03:46:16.280Z,7.50
2023-02-09T03:48:45.258Z,7.50
2023-02-09T03:51:15.539Z,7.50
2023-02-09T03:53:44.530Z,7.50
2023-02-09T03:56:16.307Z,7.50
2023-02-09T03:58:45.343Z,7.50
2023-02-09T04:01:14.333Z,7.40
2023-02-09T04:03:43.456Z,7.40
2023-02-09T04:06:12.427Z,7.40
2023-02-09T04:08:43.293Z,7.40
2023-02-09T04:11:12.262Z,7.40
2023-02-09T04:13:41.301Z,7.40
2023-02-09T04:16:10.462Z,7.40
2023-02-09T04:18:42.481Z,7.40
2023-02-09T04:21:11.597Z,7.40
2023-02-09T04:23:45.093Z,7.30
2023-02-09T04:26:14.725Z,7.40
2023-02-09T04:28:43.835Z,7.30
2023-02-09T04:31:13.268Z,7.30
2023-02-09T04:33:42.407Z,7.30
2023-02-09T04:36:14.050Z,7.30
2023-02-09T04:38:44.450Z,7.20
2023-02-09T04:41:13.495Z,7.20
2023-02-09T04:43:42.541Z,7.20
2023-02-09T04:46:14.433Z,7.20
2023-02-09T04:48:44.034Z,7.20
2023-02-09T04:51:13.720Z,7.10
2023-02-09T04:53:44.471Z,7.10
2023-02-09T04:56:16.465Z,7.10
2023-02-09T04:59:03.420Z,7.10
2023-02-09T05:01:32.964Z,7.10
2023-02-09T05:04:04.417Z,7.10
2023-02-09T05:06:33.398Z,7.10
2023-02-09T05:09:03.742Z,7.00
2023-02-09T05:11:32.745Z,7.00
2023-02-09T05:14:01.729Z,7.00
2023-02-09T05:16:33.746Z,7.00
2023-02-09T05:19:02.815Z,7.00
2023-02-09T05:21:34.964Z,7.00
2023-02-09T05:24:08.345Z,7.00
2023-02-09T05:26:37.621Z,7.00
2023-02-09T05:29:06.678Z,7.00
2023-02-09T05:31:35.791Z,7.00
2023-02-09T05:34:04.857Z,7.00
2023-02-09T05:36:33.855Z,7.00
2023-02-09T05:39:02.944Z,6.90
2023-02-09T05:41:50.996Z,6.90
2023-02-09T05:44:23.041Z,6.90
2023-02-09T05:46:51.993Z,6.90
2023-02-09T05:49:21.004Z,6.90
2023-02-09T05:51:50.002Z,6.90
2023-02-09T05:54:19.206Z,6.90
2023-02-09T05:56:49.989Z,6.90
2023-02-09T05:59:19.362Z,6.90
2023-02-09T06:01:48.411Z,6.90
2023-02-09T06:04:17.573Z,6.90
2023-02-09T06:06:48.763Z,6.90
2023-02-09T06:09:17.928Z,6.90
2023-02-09T06:11:47.111Z,6.80
2023-02-09T06:14:17.828Z,6.80
2023-02-09T06:16:47.195Z,6.80
2023-02-09T06:19:18.007Z,6.80
2023-02-09T06:21:47.655Z,6.80
2023-02-09T06:24:18.914Z,6.80
2023-02-09T06:26:48.017Z,6.80
2023-02-09T06:29:18.366Z,6.80
2023-02-09T06:31:47.462Z,6.70
2023-02-09T06:34:16.518Z,6.70
2023-02-09T06:36:47.739Z,6.70
2023-02-09T06:39:16.729Z,6.70
2023-02-09T06:41:45.628Z,6.70
2023-02-09T06:44:14.689Z,6.70
2023-02-09T06:46:45.010Z,6.70
2023-02-09T06:49:14.042Z,6.60
2023-02-09T06:51:43.253Z,6.70
2023-02-09T06:54:12.380Z,6.60
2023-02-09T06:56:41.366Z,6.60
2023-02-09T06:59:10.360Z,6.60
2023-02-09T07:01:39.425Z,6.60
2023-02-09T07:04:09.817Z,6.60
2023-02-09T07:06:38.809Z,6.60
2023-02-09T07:09:07.745Z,6.60
2023-02-09T07:11:37.077Z,6.50
2023-02-09T07:14:06.191Z,6.50
2023-02-09T07:16:35.157Z,6.50
2023-02-09T07:19:04.202Z,6.50
2023-02-09T07:21:34.526Z,6.50
2023-02-09T07:24:03.467Z,6.50
2023-02-09T07:26:32.474Z,6.50
2023-02-09T07:29:02.519Z,6.40
2023-02-09T07:31:31.750Z,6.40
2023-02-09T07:34:00.847Z,6.40
2023-02-09T07:36:29.946Z,6.40
2023-02-09T07:39:00.622Z,6.40
2023-02-09T07:41:29.829Z,6.40
2023-02-09T07:44:02.026Z,6.40
2023-02-09T07:46:31.175Z,6.40
2023-02-09T07:49:03.225Z,6.40
2023-02-09T07:51:34.069Z,6.40
2023-02-09T07:54:07.244Z,6.40
2023-02-09T07:56:39.458Z,6.40
2023-02-09T07:59:09.066Z,6.40
2023-02-09T08:01:38.348Z,6.40
2023-02-09T08:04:07.519Z,6.40
2023-02-09T08:06:43.197Z,6.40
2023-02-09T08:09:17.005Z,6.40
2023-02-09T08:11:50.096Z,6.40
2023-02-09T08:14:23.152Z,6.50
2023-02-09T08:17:15.985Z,6.50
2023-02-09T08:19:51.569Z,6.50
2023-02-09T08:22:25.500Z,6.50
2023-02-09T08:24:56.200Z,6.60
2023-02-09T08:27:25.622Z,6.60
2023-02-09T08:29:54.912Z,6.60
2023-02-09T08:32:23.961Z,6.70
2023-02-09T08:34:53.090Z,6.70
2023-02-09T08:37:22.123Z,6.80
2023-02-09T08:39:51.118Z,6.80
2023-02-09T08:42:21.496Z,6.90
2023-02-09T08:44:53.510Z,7.00
2023-02-09T08:47:22.869Z,7.10
2023-02-09T08:49:52.068Z,7.10
2023-02-09T08:52:21.204Z,7.20
2023-02-09T08:54:50.203Z,7.30
2023-02-09T08:57:19.205Z,7.40
2023-02-09T08:59:49.559Z,7.40
2023-02-09T09:02:18.568Z,7.50
2023-02-09T09:04:48.209Z,7.60
2023-02-09T09:07:26.556Z,7.70
2023-02-09T09:09:55.637Z,7.80
2023-02-09T09:12:24.613Z,7.90
2023-02-09T09:14:54.907Z,8.00
2023-02-09T09:17:24.002Z,8.10
2023-02-09T09:19:55.907Z,8.20
2023-02-09T09:22:28.158Z,8.30
2023-02-09T09:24:57.142Z,8.40
2023-02-09T09:27:27.109Z,8.50
2023-02-09T09:29:57.526Z,8.60
2023-02-09T09:32:26.752Z,8.70
2023-02-09T09:34:57.505Z,8.80
2023-02-09T09:37:29.513Z,8.90
2023-02-09T09:39:59.414Z,9.00
2023-02-09T09:42:36.216Z,9.10
2023-02-09T09:45:09.535Z,9.20
2023-02-09T09:47:43.763Z,9.30
2023-02-09T09:50:20.428Z,9.40
2023-02-09T09:52:54.153Z,9.50
2023-02-09T09:55:29.748Z,9.60
2023-02-09T09:58:03.008Z,9.70
2023-02-09T10:00:38.346Z,9.90
2023-02-09T10:03:16.558Z,10.00
2023-02-09T10:05:47.736Z,10.10
2023-02-09T10:08:25.303Z,10.20
2023-02-09T10:11:01.133Z,10.30
2023-02-09T10:13:36.479Z,10.40
2023-02-09T10:16:17.920Z,10.60
2023-02-09T10:18:50.997Z,10.70
2023-02-09T10:21:20.867Z,10.80
2023-02-09T10:23:52.371Z,11.00
2023-02-09T10:26:26.449Z,11.10
2023-02-09T10:29:01.055Z,11.30
2023-02-09T10:31:36.303Z,11.40
2023-02-09T10:34:15.081Z,11.50
2023-02-09T10:36:52.141Z,11.70
2023-02-09T10:39:24.072Z,11.80
2023-02-09T10:41:55.263Z,11.90
2023-02-09T10:44:27.597Z,12.10
2023-02-09T10:47:12.675Z,12.20
2023-02-09T10:49:41.633Z,12.30
2023-02-09T10:52:19.358Z,12.50
2023-02-09T10:54:52.238Z,12.60
2023-02-09T10:57:26.172Z,12.80
2023-02-09T10:59:58.789Z,12.90
2023-02-09T11:02:51.454Z,13.00
2023-02-09T11:05:34.352Z,13.20
2023-02-09T11:08:17.088Z,13.30
2023-02-09T11:11:00.312Z,13.40
2023-02-09T11:13:35.024Z,13.50
2023-02-09T11:16:47.411Z,13.60
2023-02-09T11:19:45.607Z,13.70
2023-02-09T11:22:20.632Z,13.80
2023-02-09T11:25:06.550Z,13.90
2023-02-09T11:27:59.417Z,14.10
2023-02-09T11:30:53.315Z,14.20
2023-02-09T11:33:32.459Z,14.20
2023-02-09T11:36:17.502Z,14.30
2023-02-09T11:38:53.227Z,14.30
2023-02-09T11:41:47.817Z,14.40
2023-02-09T11:44:30.792Z,14.40
2023-02-09T11:47:06.847Z,14.40
2023-02-09T11:49:52.176Z,14.50
2023-02-09T11:52:30.032Z,14.50
2023-02-09T11:55:04.351Z,14.50
2023-02-09T11:57:41.594Z,14.50
2023-02-09T12:00:21.118Z,14.50
2023-02-09T12:02:59.804Z,14.40
2023-02-09T12:05:29.180Z,14.40
2023-02-09T12:08:24.062Z,14.40
2023-02-09T12:11:10.524Z,14.40
2023-02-09T12:14:00.067Z,14.30
2023-02-09T12:16:34.987Z,14.30
2023-02-09T12:19:05.918Z,14.30
2023-02-09T12:21:38.427Z,14.30
2023-02-09T12:24:35.369Z,14.30
2023-02-09T12:27:11.858Z,14.30
2023-02-09T12:29:44.218Z,14.30
2023-02-09T12:32:30.719Z,14.40
2023-02-09T12:35:27.381Z,14.40
2023-02-09T12:38:17.878Z,14.50
2023-02-09T12:41:04.570Z,14.60
2023-02-09T12:43:38.996Z,14.70
2023-02-09T12:46:22.718Z,14.70
2023-02-09T12:49:15.799Z,14.80
2023-02-09T12:51:55.862Z,14.90
2023-02-09T12:54:36.185Z,14.90
2023-02-09T12:57:53.506Z,14.90
2023-02-09T13:00:54.908Z,14.90
2023-02-09T13:03:25.993Z,14.90
2023-02-09T13:06:01.304Z,14.90
2023-02-09T13:08:40.162Z,14.80
2023-02-09T13:11:30.617Z,14.80
2023-02-09T13:14:03.347Z,14.70
2023-02-09T13:17:04.813Z,14.70
2023-02-09T13:20:05.085Z,14.60
2023-02-09T13:22:56.439Z,14.50
2023-02-09T13:25:33.419Z,14.40
2023-02-09T13:28:14.050Z,14.40
2023-02-09T13:30:43.532Z,14.30
2023-02-09T13:33:32.715Z,14.20
2023-02-09T13:36:24.983Z,14.20
2023-02-09T13:38:54.956Z,14.10
2023-02-09T13:41:30.995Z,14.00
2023-02-09T13:44:00.129Z,13.90
2023-02-09T13:46:35.224Z,13.90
2023-02-09T13:49:19.825Z,13.80
2023-02-09T13:51:49.334Z,13.70
2023-02-09T13:54:20.775Z,13.60
2023-02-09T13:56:50.117Z,13.60
2023-02-09T13:59:19.147Z,13.50
2023-02-09T14:01:48.479Z,13.50
2023-02-09T14:04:23.863Z,13.40
2023-02-09T14:06:58.338Z,13.30
2023-02-09T14:09:34.332Z,13.30
2023-02-09T14:12:09.422Z,13.20
2023-02-09T14:14:58.711Z,13.20
2023-02-09T14:17:30.593Z,13.20
2023-02-09T14:20:01.690Z,13.10
2023-02-09T14:22:34.497Z,13.10
2023-02-09T14:25:19.390Z,13.00
2023-02-09T14:27:49.744Z,13.00
2023-02-09T14:30:22.410Z,12.90
2023-02-09T14:32:54.845Z,12.90
2023-02-09T14:35:29.534Z,12.90
2023-02-09T14:38:01.030Z,12.80
2023-02-09T14:40:34.242Z,12.80
2023-02-09T14:43:22.104Z,12.70
2023-02-09T14:46:01.489Z,12.70
2023-02-09T14:48:32.255Z,12.60
2023-02-09T14:51:12.178Z,12.60
2023-02-09T14:53:43.932Z,12.50
2023-02-09T14:56:23.987Z,12.50
2023-02-09T14:58:53.021Z,12.40
2023-02-09T15:01:22.109Z,12.30
2023-02-09T15:03:51.179Z,12.40
2023-02-09T15:06:21.579Z,12.20
2023-02-09T15:08:50.601Z,12.20
2023-02-09T15:11:42.621Z,12.10
2023-02-09T15:14:12.985Z,12.10
2023-02-09T15:16:42.055Z,12.10
2023-02-09T15:19:13.814Z,12.10
2023-02-09T15:21:44.180Z,12.00
2023-02-09T15:24:13.251Z,12.00
2023-02-09T15:26:42.464Z,11.90
2023-02-09T15:29:20.264Z,12.00
2023-02-09T15:31:49.200Z,11.80
2023-02-09T15:34:18.200Z,11.80
2023-02-09T15:36:51.504Z,11.70
2023-02-09T15:39:23.694Z,11.70
2023-02-09T15:42:10.058Z,11.70
2023-02-09T15:44:56.480Z,11.60
2023-02-09T15:47:42.678Z,11.60
2023-02-09T15:50:11.729Z,11.60
2023-02-09T15:52:44.441Z,11.60
2023-02-09T15:55:20.539Z,11.50
2023-02-09T15:57:52.346Z,11.50
2023-02-09T16:00:24.765Z,11.50
2023-02-09T16:02:54.721Z,11.50
2023-02-09T16:05:26.755Z,11.50
2023-02-09T16:07:57.648Z,11.50
2023-02-09T16:10:29.879Z,11.40
2023-02-09T16:12:59.576Z,11.40
2023-02-09T16:15:28.783Z,11.40
2023-02-09T16:17:57.756Z,11.40
2023-02-09T16:20:26.750Z,11.40
2023-02-09T16:23:11.837Z,11.40
2023-02-09T16:25:49.442Z,11.40
2023-02-09T16:28:19.832Z,11.30
2023-02-09T16:30:52.537Z,11.30
2023-02-09T16:33:22.612Z,11.30
2023-02-09T16:35:55.805Z,11.30
2023-02-09T16:38:27.651Z,11.30
2023-02-09T16:40:57.470Z,11.30
2023-02-09T16:43:26.477Z,11.30
2023-02-09T16:46:03.318Z,11.30
2023-02-09T16:48:34.988Z,11.30
2023-02-09T16:51:07.837Z,11.20
2023-02-09T16:53:44.991Z,11.20
2023-02-09T16:56:17.064Z,11.30
2023-02-09T16:58:47.361Z,11.20
2023-02-09T17:01:20.106Z,11.10
2023-02-09T17:03:53.624Z,11.10
2023-02-09T17:06:25.632Z,11.10
2023-02-09T17:08:56.719Z,11.10
2023-02-09T17:11:28.902Z,11.00
2023-02-09T17:14:00.922Z,11.00
2023-02-09T17:16:34.864Z,11.00
2023-02-09T17:19:08.440Z,10.90
2023-02-09T17:21:41.200Z,10.90
2023-02-09T17:24:17.660Z,10.90
2023-02-09T17:26:48.970Z,10.80
2023-02-09T17:29:20.209Z,10.90
2023-02-09T17:31:53.688Z,10.80
2023-02-09T17:34:27.128Z,10.80
2023-02-09T17:36:56.570Z,10.80
2023-02-09T17:39:26.896Z,10.80
2023-02-09T17:41:55.915Z,10.70
2023-02-09T17:44:43.698Z,10.70
2023-02-09T17:47:18.328Z,10.80
2023-02-09T17:49:47.935Z,10.60
2023-02-09T17:52:18.584Z,10.60
2023-02-09T17:54:50.926Z,10.70
2023-02-09T17:57:21.070Z,10.50
2023-02-09T17:59:50.107Z,10.50
2023-02-09T18:02:20.659Z,10.50
2023-02-09T18:04:49.637Z,10.40
2023-02-09T18:07:20.569Z,10.40
2023-02-09T18:09:54.421Z,10.40
2023-02-09T18:12:27.107Z,10.40
2023-02-09T18:14:56.203Z,10.40
2023-02-09T18:17:25.228Z,10.30
2023-02-09T18:19:54.186Z,10.30
2023-02-09T18:22:27.527Z,10.20
2023-02-09T18:25:00.615Z,10.20
2023-02-09T18:27:29.679Z,10.20
2023-02-09T18:29:58.827Z,10.20
2023-02-09T18:32:27.895Z,10.00
2023-02-09T18:34:56.879Z,10.10
2023-02-09T18:37:25.932Z,10.10
2023-02-09T18:39:54.917Z,10.00
2023-02-09T18:42:25.449Z,10.00
2023-02-09T18:44:57.465Z,10.00
2023-02-09T18:47:27.132Z,9.90
2023-02-09T18:49:56.163Z,9.90
2023-02-09T18:52:26.983Z,9.90
2023-02-09T18:54:56.089Z,9.90
2023-02-09T18:57:26.445Z,9.80
2023-02-09T18:59:55.372Z,9.80
2023-02-09T19:02:24.684Z,9.80
2023-02-09T19:04:53.900Z,9.70
2023-02-09T19:07:23.101Z,9.70
2023-02-09T19:09:52.267Z,9.80
2023-02-09T19:12:28.195Z,9.80
2023-02-09T19:14:57.588Z,9.70
2023-02-09T19:17:26.752Z,9.70
2023-02-09T19:19:59.160Z,9.60
2023-02-09T19:22:28.164Z,9.60
2023-02-09T19:24:58.080Z,9.60
2023-02-09T19:27:29.724Z,9.60
2023-02-09T19:29:59.955Z,9.60
2023-02-09T19:32:30.280Z,9.50
2023-02-09T19:34:59.340Z,9.50
2023-02-09T19:37:28.362Z,9.50
2023-02-09T19:40:04.524Z,9.50
2023-02-09T19:42:35.320Z,9.50
2023-02-09T19:45:04.979Z,9.50
2023-02-09T19:47:33.935Z,9.40
2023-02-09T19:50:02.890Z,9.40
2023-02-09T19:52:31.879Z,9.40
2023-02-09T19:55:00.866Z,9.40
2023-02-09T19:57:29.828Z,9.40
2023-02-09T20:00:00.170Z,9.40
2023-02-09T20:02:29.216Z,9.30
2023-02-09T20:04:58.305Z,9.30
2023-02-09T20:07:27.457Z,9.30
2023-02-09T20:09:58.159Z,9.20
2023-02-09T20:12:27.230Z,9.20
2023-02-09T20:14:56.567Z,9.20
2023-02-09T20:17:27.947Z,9.20
2023-02-09T20:19:57.107Z,9.20
2023-02-09T20:22:26.081Z,9.10
2023-02-09T20:24:55.073Z,9.10
2023-02-09T20:27:24.058Z,9.10
2023-02-09T20:30:01.284Z,9.10
2023-02-09T20:32:35.394Z,9.10
2023-02-09T20:35:04.931Z,9.10
2023-02-09T20:37:33.946Z,9.10
2023-02-09T20:40:03.029Z,9.00
2023-02-09T20:42:49.696Z,9.00
2023-02-09T20:45:39.009Z,9.10
2023-02-09T20:48:09.919Z,9.00
2023-02-09T20:50:39.065Z,9.00
2023-02-09T20:53:08.636Z,9.00
2023-02-09T20:55:38.752Z,9.00
2023-02-09T20:58:09.574Z,9.00
2023-02-09T21:00:39.407Z,9.00
2023-02-09T21:03:10.349Z,8.90
2023-02-09T21:05:39.467Z,8.90
2023-02-09T21:08:09.442Z,8.90
2023-02-09T21:10:38.819Z,8.90
2023-02-09T21:13:10.415Z,8.90
2023-02-09T21:15:42.904Z,8.80
2023-02-09T21:18:13.411Z,8.90
2023-02-09T21:20:42.442Z,8.80
2023-02-09T21:23:11.768Z,8.80
2023-02-09T21:25:40.935Z,8.80
2023-02-09T21:28:10.330Z,8.80
2023-02-09T21:30:43.227Z,8.80
2023-02-09T21:33:13.734Z,8.80
2023-02-09T21:35:42.954Z,8.70
2023-02-09T21:38:12.347Z,8.70
2023-02-09T21:40:42.185Z,8.70
2023-02-09T21:43:11.356Z,8.70
2023-02-09T21:45:41.643Z,8.70
2023-02-09T21:48:11.094Z,8.70
2023-02-09T21:50:42.165Z,8.60
2023-02-09T21:53:11.728Z,8.60
2023-02-09T21:55:41.595Z,8.60
2023-02-09T21:58:10.926Z,8.60
2023-02-09T22:00:42.961Z,8.60
2023-02-09T22:03:14.792Z,8.60
2023-02-09T22:05:57.558Z,8.60
2023-02-09T22:08:27.478Z,8.50
2023-02-09T22:11:01.593Z,8.50
2023-02-09T22:13:31.723Z,8.50
2023-02-09T22:16:01.714Z,8.50
2023-02-09T22:18:30.784Z,8.50
2023-02-09T22:21:01.197Z,8.50
2023-02-09T22:23:30.228Z,8.50
2023-02-09T22:26:03.854Z,8.50
2023-02-09T22:28:36.763Z,8.50
2023-02-09T22:31:11.031Z,8.50
2023-02-09T22:33:40.355Z,8.40
2023-02-09T22:36:14.256Z,8.40
2023-02-09T22:38:44.655Z,8.40
2023-02-09T22:41:22.275Z,8.40
2023-02-09T22:43:52.489Z,8.40
2023-02-09T22:46:22.676Z,8.40
2023-02-09T22:48:52.853Z,8.30
2023-02-09T22:51:24.734Z,8.30
2023-02-09T22:53:53.739Z,8.30
2023-02-09T22:56:25.602Z,8.30
2023-02-09T22:59:00.080Z,8.30
2023-02-09T23:01:30.203Z,8.20
2023-02-09T23:03:59.599Z,8.20
2023-02-09T23:06:31.470Z,8.20
2023-02-09T23:09:03.129Z,8.20
2023-02-09T23:11:33.240Z,8.20
2023-02-09T23:14:10.745Z,8.20
2023-02-09T23:16:42.033Z,8.20
2023-02-09T23:19:14.460Z,8.10
2023-02-09T23:21:48.289Z,8.10
2023-02-09T23:24:21.608Z,8.10
2023-02-09T23:26:50.640Z,8.10
2023-02-09T23:29:20.367Z,8.10
2023-02-09T23:31:49.970Z,8.10
2023-02-09T23:34:22.508Z,8.00
2023-02-09T23:36:52.968Z,8.00
2023-02-09T23:39:25.686Z,8.00
2023-02-09T23:41:54.665Z,8.00
2023-02-09T23:44:23.798Z,7.90
2023-02-09T23:46:52.820Z,7.90
2023-02-09T23:49:22.716Z,7.90
2023-02-09T23:51:56.046Z,7.90
2023-02-09T23:54:25.016Z,7.90
2023-02-09T23:56:53.996Z,7.90
2023-02-09T23:59:22.975Z,7.80
